Time;durP1;ratioP1;P1;durP2;ratioP2;P2;SDS_P1;SDS_P2;PMS_P1;PMS_P2;Temp;Humidity;BMP_temperature;BMP_pressure;BME280_temperature;BME280_humidity;BME280_pressure;Samples;Min_cycle;Max_cycle;Signal;HPM_P1;HPM_P2
2022/06/04 08:47:47;;;;;;;;;50.75;37.25;;;;;31.44;100.00;100935.47;4300500;32;51227;-85
2022/06/04 08:50:37;;;;;;;;;54.75;42.00;;;;;31.41;100.00;100940.38;5055416;28;51212;-85
2022/06/04 08:53:32;;;;;;;;;51.75;42.00;;;;;31.38;100.00;100941.50;5058638;28;52287;-85
2022/06/04 09:00:23;;;;;;;;;55.75;42.25;;;;;31.16;100.00;100937.06;5052967;28;51760;-86
2022/06/04 09:03:22;;;;;;;;;55.00;44.50;;;;;31.07;100.00;100935.94;5034621;28;51253;-87
2022/06/04 09:06:29;;;;;;;;;52.25;42.50;;;;;31.12;100.00;100925.47;5055506;28;51182;-87
2022/06/04 09:09:41;;;;;;;;;51.25;43.00;;;;;31.25;100.00;100932.63;5046359;28;51317;-87
2022/06/04 09:12:42;;;;;;;;;56.00;43.50;;;;;31.41;100.00;100929.41;5044374;28;51794;-88
2022/06/04 09:15:41;;;;;;;;;54.50;42.75;;;;;31.70;100.00;100937.78;5041617;28;51161;-87
2022/06/04 09:18:49;;;;;;;;;58.25;45.75;;;;;31.68;100.00;100915.94;5058208;28;51276;-87
2022/06/04 09:21:43;;;;;;;;;56.50;45.50;;;;;32.05;100.00;100941.09;5056880;28;51546;-88
2022/06/04 09:24:37;;;;;;;;;56.00;43.25;;;;;32.23;100.00;100952.25;5056334;28;51299;-88
2022/06/04 09:28:02;;;;;;;;;56.50;43.25;;;;;32.25;100.00;100953.03;5054585;28;51227;-87
2022/06/04 09:31:09;;;;;;;;;51.75;43.00;;;;;32.36;100.00;100943.78;5038286;28;51292;-87
2022/06/04 09:34:04;;;;;;;;;55.00;42.25;;;;;32.47;100.00;100932.63;5056197;28;51292;-88
2022/06/04 09:37:25;;;;;;;;;54.00;43.50;;;;;33.07;100.00;100917.81;5051096;28;51531;-87
2022/06/04 09:40:33;;;;;;;;;54.25;44.00;;;;;33.58;100.00;100928.53;5069247;28;51282;-87
2022/06/04 09:43:18;;;;;;;;;47.75;39.50;;;;;33.71;100.00;100928.19;5038956;28;51313;-87
2022/06/04 09:46:09;;;;;;;;;50.25;40.50;;;;;33.42;100.00;100954.00;5045260;28;51188;-88
2022/06/04 09:48:59;;;;;;;;;50.50;39.50;;;;;32.78;100.00;100951.78;5025896;28;51252;-87
2022/06/04 09:51:48;;;;;;;;;50.75;40.75;;;;;32.75;100.00;100972.19;5039959;28;51068;-88
2022/06/04 09:54:36;;;;;;;;;51.25;40.00;;;;;32.63;100.00;100981.63;5042245;28;51263;-87
2022/06/04 09:57:50;;;;;;;;;52.00;41.00;;;;;32.52;100.00;100970.75;5040893;28;51168;-87
2022/06/04 10:00:41;;;;;;;;;51.00;41.25;;;;;32.59;100.00;100966.41;5043706;28;51217;-88
2022/06/04 10:03:30;;;;;;;;;54.00;43.25;;;;;32.71;100.00;100962.50;5040558;28;51304;-87
2022/06/04 10:06:36;;;;;;;;;52.00;42.00;;;;;32.77;100.00;100966.56;5069233;27;51672;-88
2022/06/04 10:16:09;;;;;;;;;48.00;40.25;;;;;32.69;100.00;100974.69;5040592;28;51931;-87
2022/06/04 10:19:25;;;;;;;;;49.25;41.25;;;;;32.76;100.00;100948.28;5040153;28;51122;-87
2022/06/04 10:22:24;;;;;;;;;46.00;35.75;;;;;32.70;100.00;100941.47;5037630;28;51455;-87
2022/06/04 10:25:40;;;;;;;;;50.25;40.50;;;;;32.74;100.00;100961.31;5050346;28;51219;-87
2022/06/04 10:28:41;;;;;;;;;53.00;43.75;;;;;32.71;100.00;100956.97;5040497;28;51198;-87
2022/06/04 10:31:33;;;;;;;;;55.75;45.50;;;;;32.65;100.00;100954.78;5025656;28;51376;-87
2022/06/04 10:34:58;;;;;;;;;49.00;41.25;;;;;32.64;100.00;100942.06;5008784;28;51707;-87
2022/06/04 10:38:09;;;;;;;;;50.75;39.75;;;;;32.65;100.00;100924.50;5025343;28;51272;-87
2022/06/04 10:41:52;;;;;;;;;50.50;38.00;;;;;32.69;100.00;100916.84;5040832;28;51099;-87
2022/06/04 10:45:00;;;;;;;;;50.25;38.25;;;;;32.81;100.00;100915.66;5007198;28;51508;-87
2022/06/04 10:48:10;;;;;;;;;47.25;38.00;;;;;32.83;100.00;100934.81;5042135;28;51246;-87
2022/06/04 10:51:26;;;;;;;;;48.25;38.25;;;;;32.72;100.00;100930.28;5045621;28;51664;-88
2022/06/04 10:54:11;;;;;;;;;49.75;40.50;;;;;-146.59;100.00;59519.28;5038682;27;51277;-89
2022/06/04 10:57:17;;;;;;;;;49.50;38.00;;;;;-146.59;100.00;59519.28;5054293;27;51059;-87
2022/06/04 11:00:12;;;;;;;;;45.75;36.25;;;;;-146.59;100.00;59519.28;5054859;27;51250;-89
2022/06/04 11:03:17;;;;;;;;;46.25;34.75;;;;;-146.59;100.00;59519.28;5040400;27;51232;-88
2022/06/04 11:06:26;;;;;;;;;39.25;33.75;;;;;-146.59;100.00;59519.28;5051697;28;51136;-88
2022/06/04 11:09:21;;;;;;;;;45.50;34.50;;;;;-146.59;100.00;59519.28;5035621;27;51111;-89
2022/06/04 11:12:59;;;;;;;;;36.75;32.75;;;;;-146.59;100.00;59519.28;5046482;28;51237;-89
2022/06/04 11:16:09;;;;;;;;;48.25;36.75;;;;;-146.59;100.00;59519.28;5003129;28;51267;-88
2022/06/04 11:19:03;;;;;;;;;41.50;35.25;;;;;-146.59;100.00;59519.28;5046264;28;51826;-88
2022/06/04 11:21:57;;;;;;;;;44.25;35.00;;;;;-146.59;100.00;59519.28;5046906;28;51123;-88
2022/06/04 11:25:27;;;;;;;;;46.75;35.50;;;;;-146.59;100.00;59519.28;5031442;28;52151;-88
2022/06/04 11:28:36;;;;;;;;;42.75;35.50;;;;;-146.59;100.00;59519.28;5050899;28;51493;-89
2022/06/04 11:32:03;;;;;;;;;44.00;32.75;;;;;-146.59;100.00;59519.28;5045736;28;51286;-88
2022/06/04 11:34:56;;;;;;;;;44.75;36.75;;;;;-146.59;100.00;59519.28;5045766;28;51203;-86
2022/06/04 11:38:45;;;;;;;;;39.50;33.00;;;;;-146.59;100.00;59519.28;5007218;28;51189;-88
2022/06/04 11:41:48;;;;;;;;;35.75;31.75;;;;;-146.59;100.00;59519.28;5005986;28;51504;-86
2022/06/04 11:44:57;;;;;;;;;38.50;33.25;;;;;-146.59;100.00;59519.28;5004496;28;50978;-86
2022/06/04 11:47:42;;;;;;;;;45.75;34.25;;;;;-146.59;100.00;59519.28;5003858;28;51731;-86
2022/06/04 11:50:47;;;;;;;;;46.25;35.75;;;;;-146.59;100.00;59519.28;5004373;28;51400;-87
2022/06/04 11:54:06;;;;;;;;;36.50;30.75;;;;;-146.59;100.00;59519.28;5005390;28;51189;-87
2022/06/04 11:57:41;;;;;;;;;31.75;27.00;;;;;-146.59;100.00;59519.28;4999186;28;51173;-85
2022/06/04 12:00:54;;;;;;;;;31.50;28.25;;;;;-146.59;100.00;59519.28;5004073;28;51185;-90
2022/06/04 12:03:49;;;;;;;;;30.25;26.75;;;;;-146.59;100.00;59519.28;4993489;28;51230;-89
2022/06/04 12:06:42;;;;;;;;;25.75;24.25;;;;;-146.59;100.00;59519.28;4987555;28;51276;-89
2022/06/04 12:09:59;;;;;;;;;24.75;22.75;;;;;-146.59;100.00;59519.28;5007860;28;51453;-89
2022/06/04 12:13:05;;;;;;;;;26.00;24.00;;;;;-146.59;100.00;59519.28;4987053;28;51352;-89
2022/06/04 12:16:18;;;;;;;;;27.50;25.00;;;;;-146.59;100.00;59519.28;5062240;28;51598;-89
2022/06/04 12:25:50;;;;;;;;;31.50;25.50;;;;;-146.59;100.00;59519.28;5051472;28;51430;-88
2022/06/04 12:28:42;;;;;;;;;36.75;30.50;;;;;-146.59;100.00;59519.28;5033891;28;51290;-88
2022/06/04 12:31:36;;;;;;;;;34.50;28.50;;;;;-146.59;100.00;59519.28;5047794;28;51147;-89
2022/06/04 12:34:32;;;;;;;;;32.25;30.75;;;;;-146.59;100.00;59519.28;5032529;28;52365;-88
2022/06/04 12:37:27;;;;;;;;;30.00;24.50;;;;;-146.59;100.00;59519.28;5032721;28;51063;-88
2022/06/04 12:40:39;;;;;;;;;31.50;28.00;;;;;-146.59;100.00;59519.28;5026666;28;51242;-89
2022/06/04 12:43:42;;;;;;;;;34.00;28.00;;;;;-146.59;100.00;59519.28;5069843;28;51217;-88
2022/06/04 12:47:09;;;;;;;;;32.25;28.50;;;;;-146.59;100.00;59519.28;5061676;28;51161;-89
2022/06/04 12:50:22;;;;;;;;;31.50;28.00;;;;;-146.59;100.00;59519.28;5053961;28;51276;-88
2022/06/04 12:53:29;;;;;;;;;27.50;24.75;;;;;-146.59;100.00;59519.28;5047145;28;51285;-89
2022/06/04 12:56:29;;;;;;;;;34.00;29.50;;;;;-146.59;100.00;59519.28;5032024;28;51541;-89
2022/06/04 12:59:29;;;;;;;;;24.75;23.75;;;;;-146.59;100.00;59519.28;5046226;28;51136;-89
2022/06/04 13:03:03;;;;;;;;;37.50;29.25;;;;;-146.59;100.00;59519.28;5060357;28;51305;-90
2022/06/04 13:06:25;;;;;;;;;23.75;21.25;;;;;-146.59;100.00;59519.28;5023002;28;51504;-89
2022/06/04 13:09:49;;;;;;;;;27.50;26.50;;;;;-146.59;100.00;59519.28;5049826;28;51068;-88
2022/06/04 13:12:59;;;;;;;;;27.75;24.00;;;;;-146.59;100.00;59519.28;5046643;28;51583;-88
2022/06/04 13:16:03;;;;;;;;;29.50;27.25;;;;;-146.59;100.00;59519.28;5059567;28;51248;-88
2022/06/04 13:19:43;;;;;;;;;27.25;24.75;;;;;-146.59;100.00;59519.28;5047772;28;51239;-89
2022/06/04 13:23:12;;;;;;;;;28.00;25.50;;;;;-146.59;100.00;59519.28;5062397;28;51185;-89
2022/06/04 13:26:22;;;;;;;;;23.75;22.50;;;;;-146.59;100.00;59519.28;5037369;28;51743;-88
2022/06/04 13:29:40;;;;;;;;;27.00;25.75;;;;;-146.59;100.00;59519.28;5048573;28;51190;-89
2022/06/04 13:32:24;;;;;;;;;31.25;26.00;;;;;-146.59;100.00;59519.28;5034693;28;51084;-90
2022/06/04 13:35:37;;;;;;;;;21.75;18.75;;;;;-146.59;100.00;59519.28;5033518;28;51539;-89
2022/06/04 13:38:46;;;;;;;;;28.50;26.25;;;;;-146.59;100.00;59519.28;5062434;28;51282;-89
2022/06/04 13:42:05;;;;;;;;;27.75;24.25;;;;;-146.59;100.00;59519.28;5063793;28;51054;-89
2022/06/04 13:45:00;;;;;;;;;23.25;21.25;;;;;-146.59;100.00;59519.28;5065566;28;51672;-88
2022/06/04 13:48:22;;;;;;;;;14.50;14.50;;;;;-146.59;100.00;59519.28;5041153;28;50531;-89
2022/06/04 13:51:20;;;;;;;;;21.50;20.00;;;;;-146.59;100.00;59519.28;5055627;28;51451;-88
2022/06/04 13:54:17;;;;;;;;;28.50;20.00;;;;;-146.59;100.00;59519.28;5031726;28;51259;-88
2022/06/04 13:57:24;;;;;;;;;22.25;20.75;;;;;-146.59;100.00;59519.28;5062340;28;51245;-88
2022/06/04 14:00:32;;;;;;;;;20.75;18.50;;;;;-146.59;100.00;59519.28;5062154;28;51256;-88
2022/06/04 14:03:28;;;;;;;;;20.50;18.50;;;;;-146.59;100.00;59519.28;5046830;28;51347;-88
2022/06/04 14:06:14;;;;;;;;;24.25;20.25;;;;;-146.59;100.00;59519.28;5047208;28;51261;-88
2022/06/04 14:09:03;;;;;;;;;27.00;22.75;;;;;-146.59;100.00;59519.28;5060799;28;51259;-88
2022/06/04 14:12:16;;;;;;;;;22.00;19.75;;;;;-146.59;100.00;59519.28;5030248;28;51146;-88
2022/06/04 14:15:15;;;;;;;;;24.50;19.50;;;;;-146.59;100.00;59519.28;5062257;28;51118;-88
2022/06/04 14:19:05;;;;;;;;;25.00;22.00;;;;;-146.59;100.00;59519.28;5059920;28;51199;-88
2022/06/04 14:22:10;;;;;;;;;17.25;17.00;;;;;-146.59;100.00;59519.28;5047527;28;51618;-88
2022/06/04 14:25:46;;;;;;;;;24.50;22.75;;;;;-146.59;100.00;59519.28;5060582;28;51252;-88
2022/06/04 14:28:57;;;;;;;;;28.75;24.25;;;;;-146.59;100.00;59519.28;5044050;28;51037;-88
2022/06/04 14:32:30;;;;;;;;;27.75;24.00;;;;;-146.59;100.00;59519.28;5031971;28;51432;-87
2022/06/04 14:35:38;;;;;;;;;25.75;22.50;;;;;-146.59;100.00;59519.28;5046741;28;51204;-88
2022/06/04 14:38:25;;;;;;;;;18.50;17.50;;;;;-146.59;100.00;59519.28;5047123;28;51292;-88
2022/06/04 14:41:40;;;;;;;;;20.00;18.00;;;;;-146.59;100.00;59519.28;5046966;28;51384;-88
2022/06/04 14:45:20;;;;;;;;;19.00;16.25;;;;;-146.59;100.00;59519.28;5061957;28;51105;-88
2022/06/04 14:48:32;;;;;;;;;24.50;21.00;;;;;-146.59;100.00;59519.28;5046945;28;51065;-88
2022/06/04 14:51:39;;;;;;;;;21.25;20.75;;;;;-146.59;100.00;59519.28;5040180;28;51210;-88
2022/06/04 14:54:26;;;;;;;;;20.00;17.75;;;;;-146.59;100.00;59519.28;5049096;28;51217;-88
2022/06/04 14:57:25;;;;;;;;;19.25;17.75;;;;;-146.59;100.00;59519.28;5047831;28;51191;-88
2022/06/04 15:00:33;;;;;;;;;20.50;17.50;;;;;-146.59;100.00;59519.28;5046538;28;51438;-87
2022/06/04 15:03:35;;;;;;;;;22.75;18.25;;;;;-146.59;100.00;59519.28;5047387;28;51092;-89
2022/06/04 15:06:24;;;;;;;;;19.25;17.00;;;;;-146.59;100.00;59519.28;5031465;28;51462;-87
2022/06/04 15:09:18;;;;;;;;;18.75;17.75;;;;;-146.59;100.00;59519.28;5046522;28;51398;-85
2022/06/04 15:12:21;;;;;;;;;17.75;14.75;;;;;-146.59;100.00;59519.28;5043835;28;51255;-89
2022/06/04 15:15:14;;;;;;;;;23.75;19.00;;;;;-146.59;100.00;59519.28;5049266;28;51132;-88
2022/06/04 15:18:18;;;;;;;;;20.50;16.75;;;;;-146.59;100.00;59519.28;5047228;28;51430;-88
2022/06/04 15:21:21;;;;;;;;;17.50;17.50;;;;;-146.59;100.00;59519.28;5047524;28;51294;-89
2022/06/04 15:24:27;;;;;;;;;18.00;17.50;;;;;-146.59;100.00;59519.28;5033213;28;50868;-88
2022/06/04 15:27:33;;;;;;;;;24.25;19.00;;;;;-146.59;100.00;59519.28;5033453;28;50960;-88
2022/06/04 15:33:53;;;;;;;;;18.75;16.00;;;;;-146.59;100.00;59519.28;5050012;28;51135;-89
2022/06/04 15:36:58;;;;;;;;;18.25;17.25;;;;;-146.59;100.00;59519.28;5053997;28;51388;-89
2022/06/04 15:40:11;;;;;;;;;32.50;23.75;;;;;-146.59;100.00;59519.28;5047205;28;52614;-88
2022/06/04 15:42:55;;;;;;;;;20.50;19.00;;;;;-146.59;100.00;59519.28;5033115;28;51243;-89
2022/06/04 15:46:04;;;;;;;;;22.00;19.25;;;;;-146.59;100.00;59519.28;5048422;28;51211;-89
2022/06/04 15:48:53;;;;;;;;;16.75;16.25;;;;;-146.59;100.00;59519.28;5057050;28;51138;-91
2022/06/04 15:55:24;;;;;;;;;17.25;14.00;;;;;-146.59;100.00;59519.28;5057157;28;51186;-90
2022/06/04 15:58:26;;;;;;;;;17.50;15.50;;;;;-146.59;100.00;59519.28;5035227;28;51193;-91
2022/06/04 16:01:28;;;;;;;;;12.00;9.50;;;;;-146.59;100.00;59519.28;5063668;28;50494;-91
2022/06/04 16:04:45;;;;;;;;;14.00;11.75;;;;;-146.59;100.00;59519.28;5032340;28;51240;-89
2022/06/04 16:07:44;;;;;;;;;17.00;9.75;;;;;-146.59;100.00;59519.28;5060967;28;51225;-91
2022/06/04 16:10:59;;;;;;;;;14.00;12.50;;;;;-146.59;100.00;59519.28;5062026;28;51101;-91
2022/06/04 16:14:05;;;;;;;;;14.75;12.25;;;;;-146.59;100.00;59519.28;5048424;28;51138;-91
2022/06/04 16:17:36;;;;;;;;;13.00;10.00;;;;;-146.59;100.00;59519.28;5046421;28;51035;-90
2022/06/04 16:20:51;;;;;;;;;16.75;12.25;;;;;-146.59;100.00;59519.28;5062802;28;51071;-91
2022/06/04 16:23:54;;;;;;;;;14.25;11.00;;;;;-146.59;100.00;59519.28;5044981;28;51435;-90
2022/06/04 16:26:48;;;;;;;;;12.25;10.75;;;;;-146.59;100.00;59519.28;5046363;28;51264;-91
2022/06/04 16:29:37;;;;;;;;;13.75;12.00;;;;;-146.59;100.00;59519.28;5031966;28;51364;-90
2022/06/04 16:32:22;;;;;;;;;13.00;11.50;;;;;-146.59;100.00;59519.28;5046383;28;50975;-90
2022/06/04 16:35:10;;;;;;;;;15.25;11.25;;;;;-146.59;100.00;59519.28;5032080;28;50957;-91
2022/06/04 16:38:35;;;;;;;;;13.50;13.50;;;;;-146.59;100.00;59519.28;5060613;28;51060;-91
2022/06/04 16:45:16;;;;;;;;;18.00;12.75;;;;;-146.59;100.00;59519.28;5048715;28;50963;-91
2022/06/04 16:48:06;;;;;;;;;13.00;11.75;;;;;-146.59;100.00;59519.28;5042602;28;51143;-91
2022/06/04 16:50:52;;;;;;;;;17.25;13.25;;;;;-146.59;100.00;59519.28;5032644;28;51057;-91
2022/06/04 16:53:40;;;;;;;;;18.75;14.25;;;;;-146.59;100.00;59519.28;5045034;28;51314;-91
2022/06/04 16:56:35;;;;;;;;;16.25;12.25;;;;;-146.59;100.00;59519.28;5033425;28;51375;-90
2022/06/04 16:59:28;;;;;;;;;26.50;18.50;;;;;-146.59;100.00;59519.28;5065311;28;51277;-91
2022/06/04 17:02:57;;;;;;;;;20.00;17.00;;;;;-146.59;100.00;59519.28;5051755;28;51119;-90
2022/06/04 17:05:44;;;;;;;;;19.00;17.00;;;;;-146.59;100.00;59519.28;4989281;28;51366;-90
2022/06/04 17:08:55;;;;;;;;;17.75;16.50;;;;;-146.59;100.00;59519.28;5050556;28;51618;-90
2022/06/04 17:12:24;;;;;;;;;19.75;16.50;;;;;-146.59;100.00;59519.28;5034453;28;51248;-92
2022/06/04 17:15:23;;;;;;;;;22.75;21.25;;;;;-146.59;100.00;59519.28;5046974;28;51134;-91
2022/06/04 17:18:38;;;;;;;;;16.75;14.75;;;;;-146.59;100.00;59519.28;5034609;28;51152;-91
2022/06/04 17:21:57;;;;;;;;;20.00;17.50;;;;;-146.59;100.00;59519.28;5045368;28;51035;-91
2022/06/04 17:25:06;;;;;;;;;22.00;18.50;;;;;-146.59;100.00;59519.28;5006574;28;51222;-91
2022/06/04 17:28:00;;;;;;;;;41.75;33.00;;;;;-146.59;100.00;59519.28;5036123;28;50944;-91
2022/06/04 17:31:17;;;;;;;;;24.25;20.25;;;;;-146.59;100.00;59519.28;5050460;28;51468;-91
2022/06/04 17:34:26;;;;;;;;;17.75;16.00;;;;;-146.59;100.00;59519.28;5049772;28;51395;-91
2022/06/04 17:37:20;;;;;;;;;22.50;18.25;;;;;-146.59;100.00;59519.28;5062545;28;51218;-91
2022/06/04 17:40:35;;;;;;;;;25.50;22.25;;;;;-146.59;100.00;59519.28;5048945;28;51156;-91
2022/06/04 17:43:20;;;;;;;;;18.25;16.00;;;;;-146.59;100.00;59519.28;5048920;28;51206;-90
2022/06/04 17:46:08;;;;;;;;;24.00;17.50;;;;;-146.59;100.00;59519.28;5041444;27;51372;-91
2022/06/04 17:48:59;;;;;;;;;21.50;18.50;;;;;-146.59;100.00;59519.28;5067637;27;51183;-92
2022/06/04 17:51:52;;;;;;;;;24.00;17.75;;;;;-146.59;100.00;59519.28;5070658;27;51291;-91
2022/06/04 17:54:43;;;;;;;;;21.50;17.50;;;;;-146.59;100.00;59519.28;5055580;27;51267;-90
2022/06/04 17:57:28;;;;;;;;;16.75;15.00;;;;;-146.59;100.00;59519.28;5068274;27;51489;-90
2022/06/04 18:00:16;;;;;;;;;21.25;15.25;;;;;-146.59;100.00;59519.28;5041277;27;51182;-90
2022/06/04 18:03:16;;;;;;;;;16.25;11.75;;;;;-146.59;100.00;59519.28;5049658;28;51277;-90
2022/06/04 18:06:09;;;;;;;;;13.75;13.75;;;;;-146.59;100.00;59519.28;5033825;28;51188;-92
2022/06/04 18:09:10;;;;;;;;;28.75;26.25;;;;;-146.59;100.00;59519.28;5026178;28;51217;-91
2022/06/04 18:12:11;;;;;;;;;19.00;16.50;;;;;-146.59;100.00;59519.28;5047600;28;51345;-91
2022/06/04 18:14:55;;;;;;;;;17.25;16.75;;;;;-146.59;100.00;59519.28;5048246;28;51169;-91
2022/06/04 18:17:58;;;;;;;;;19.00;14.25;;;;;-146.59;100.00;59519.28;5034599;28;51613;-90
2022/06/04 18:20:46;;;;;;;;;25.75;16.00;;;;;-146.59;100.00;59519.28;5047612;28;51235;-90
2022/06/04 18:23:33;;;;;;;;;16.50;14.75;;;;;-146.59;100.00;59519.28;5046671;28;51537;-90
2022/06/04 18:26:17;;;;;;;;;23.25;19.00;;;;;-146.59;100.00;59519.28;5046367;28;51939;-90
2022/06/04 18:29:07;;;;;;;;;26.50;23.00;;;;;-146.59;100.00;59519.28;5047042;28;51490;-91
2022/06/04 18:31:54;;;;;;;;;19.50;16.25;;;;;-146.59;100.00;59519.28;5046627;28;51448;-90
2022/06/04 18:34:52;;;;;;;;;17.50;13.75;;;;;-146.59;100.00;59519.28;5050330;28;51169;-91
2022/06/04 18:37:54;;;;;;;;;20.75;11.50;;;;;-146.59;100.00;59519.28;5063708;28;51257;-91
2022/06/04 18:40:41;;;;;;;;;17.75;14.00;;;;;-146.59;100.00;59519.28;5047875;28;51221;-90
2022/06/04 18:56:15;;;;;;;;;19.25;12.50;;;;;-146.59;100.00;59519.28;5051925;28;51108;-90
2022/06/04 18:59:02;;;;;;;;;14.75;7.25;;;;;-146.59;100.00;59519.28;5035336;28;51403;-91
2022/06/04 19:01:49;;;;;;;;;19.50;12.75;;;;;-146.59;100.00;59519.28;5035370;28;51171;-91
2022/06/04 19:05:05;;;;;;;;;19.00;14.25;;;;;-146.59;100.00;59519.28;5064328;28;51260;-90
2022/06/04 19:14:25;;;;;;;;;14.25;5.25;;;;;-146.59;100.00;59519.28;5053677;28;51104;-86
2022/06/04 19:17:10;;;;;;;;;8.00;6.50;;;;;-146.59;100.00;59519.28;5063368;28;50944;-84
2022/06/04 19:26:15;;;;;;;;;21.00;9.50;;;;;-146.59;100.00;59519.28;5051269;28;51148;-85
2022/06/04 19:29:28;;;;;;;;;14.00;7.25;;;;;-146.59;100.00;59519.28;5062720;28;50932;-84
2022/06/04 19:32:18;;;;;;;;;9.75;4.75;;;;;-146.59;100.00;59519.28;5022949;28;50980;-84
2022/06/04 19:35:12;;;;;;;;;10.75;8.00;;;;;-146.59;100.00;59519.28;5059100;28;50998;-84
2022/06/04 19:38:06;;;;;;;;;13.50;5.25;;;;;-146.59;100.00;59519.28;5045864;28;51273;-85
2022/06/04 19:40:51;;;;;;;;;16.25;7.75;;;;;-146.59;100.00;59519.28;5042020;28;51141;-84
2022/06/04 19:43:41;;;;;;;;;8.75;5.25;;;;;-146.59;100.00;59519.28;5032487;28;51428;-83
2022/06/04 19:46:50;;;;;;;;;8.25;6.25;;;;;-146.59;100.00;59519.28;5046622;28;51198;-83
2022/06/04 19:49:39;;;;;;;;;7.00;5.00;;;;;-146.59;100.00;59519.28;5046401;28;51294;-85
2022/06/04 19:55:05;;;;;;;;;4.50;4.00;;;;;-146.59;100.00;59519.28;5032601;28;50942;-85
2022/06/04 19:55:45;;;;;;;;;7.00;4.00;;;;;-146.59;100.00;59519.28;5061086;28;51260;-84
2022/06/04 19:58:38;;;;;;;;;8.00;6.00;;;;;-146.59;100.00;59519.28;5059488;28;51220;-84
2022/06/04 20:01:55;;;;;;;;;5.75;4.00;;;;;-146.59;100.00;59519.28;5045128;28;51148;-84
2022/06/04 20:04:41;;;;;;;;;8.00;5.00;;;;;-146.59;100.00;59519.28;5060712;28;51141;-83
2022/06/04 20:07:26;;;;;;;;;9.50;5.00;;;;;-146.59;100.00;59519.28;5045441;28;51115;-83
2022/06/04 20:10:19;;;;;;;;;4.75;3.25;;;;;-146.59;100.00;59519.28;5045469;28;51309;-83
2022/06/04 20:13:12;;;;;;;;;6.50;5.00;;;;;-146.59;100.00;59519.28;5061142;28;51336;-85
2022/06/04 20:16:00;;;;;;;;;5.25;2.25;;;;;-146.59;100.00;59519.28;5045340;28;51237;-84
2022/06/04 20:18:46;;;;;;;;;5.50;2.75;;;;;-146.59;100.00;59519.28;5043848;28;51210;-84
2022/06/04 20:21:31;;;;;;;;;5.50;3.00;;;;;-146.59;100.00;59519.28;5061285;28;51219;-83
2022/06/04 20:24:19;;;;;;;;;6.00;6.00;;;;;-146.59;100.00;59519.28;5045586;28;51110;-84
2022/06/04 20:27:12;;;;;;;;;10.25;8.75;;;;;-146.59;100.00;59519.28;5059688;28;51303;-83
2022/06/04 20:30:15;;;;;;;;;12.50;11.00;;;;;-146.59;100.00;59519.28;5053927;28;51231;-85
2022/06/04 20:33:00;;;;;;;;;8.75;8.50;;;;;-146.59;100.00;59519.28;5070152;27;51042;-83
2022/06/04 20:35:51;;;;;;;;;13.00;11.75;;;;;-146.59;100.00;59519.28;5039864;28;51160;-83
2022/06/04 20:38:39;;;;;;;;;19.75;11.50;;;;;-146.59;100.00;59519.28;5051638;27;51158;-83
2022/06/04 20:41:41;;;;;;;;;11.75;9.00;;;;;-146.59;100.00;59519.28;5066183;28;51546;-84
2022/06/04 20:44:30;;;;;;;;;14.75;11.00;;;;;-146.59;100.00;59519.28;5052045;28;51157;-83
2022/06/04 20:47:28;;;;;;;;;12.50;10.00;;;;;-146.59;100.00;59519.28;5054243;28;51107;-85
2022/06/04 20:50:23;;;;;;;;;16.50;13.25;;;;;-146.59;100.00;59519.28;5052234;28;51183;-84
2022/06/04 20:53:08;;;;;;;;;14.75;11.00;;;;;-146.59;100.00;59519.28;5053420;28;51248;-84
2022/06/04 20:55:54;;;;;;;;;13.00;10.00;;;;;-146.59;100.00;59519.28;5053501;28;51177;-83
2022/06/04 20:58:51;;;;;;;;;12.25;9.00;;;;;-146.59;100.00;59519.28;5054142;28;51167;-84
2022/06/04 21:01:38;;;;;;;;;15.25;10.00;;;;;-146.59;100.00;59519.28;5056573;28;51373;-84
2022/06/04 21:04:29;;;;;;;;;10.00;8.00;;;;;-146.59;100.00;59519.28;5055463;28;51281;-84
2022/06/04 21:07:17;;;;;;;;;11.50;10.00;;;;;-146.59;100.00;59519.28;5052474;28;51172;-85
2022/06/04 21:10:14;;;;;;;;;13.75;9.25;;;;;-146.59;100.00;59519.28;5058127;28;51201;-90
2022/06/04 21:13:01;;;;;;;;;14.00;7.00;;;;;-146.59;100.00;59519.28;5074303;28;51091;-90
2022/06/04 21:15:49;;;;;;;;;11.50;9.25;;;;;-146.59;100.00;59519.28;5062040;28;51179;-91
2022/06/04 21:18:34;;;;;;;;;11.00;8.25;;;;;-146.59;100.00;59519.28;5036201;28;51385;-90
2022/06/04 21:21:22;;;;;;;;;11.50;6.50;;;;;-146.59;100.00;59519.28;5041352;28;51221;-90
2022/06/04 21:24:07;;;;;;;;;10.75;9.25;;;;;-146.59;100.00;59519.28;5042413;28;51224;-90
2022/06/04 21:26:54;;;;;;;;;16.50;10.25;;;;;-146.59;100.00;59519.28;5035516;28;51157;-90
2022/06/04 21:29:51;;;;;;;;;10.25;9.00;;;;;-146.59;100.00;59519.28;5058150;28;51203;-88
2022/06/04 21:32:35;;;;;;;;;14.50;9.25;;;;;-146.59;100.00;59519.28;5063930;28;51232;-87
2022/06/04 21:38:36;;;;;;;;;13.25;9.25;;;;;-146.59;100.00;59519.28;5066867;28;51250;-84
2022/06/04 21:41:29;;;;;;;;;10.75;9.00;;;;;-146.59;100.00;59519.28;5045598;27;52588;-84
2022/06/04 21:44:26;;;;;;;;;11.75;10.00;;;;;-146.59;100.00;59519.28;5062637;27;51113;-84
2022/06/04 21:47:12;;;;;;;;;10.50;8.75;;;;;-146.59;100.00;59519.28;5052988;27;52394;-84
2022/06/04 21:50:25;;;;;;;;;13.25;10.75;;;;;-146.59;100.00;59519.28;5034714;27;51214;-83
2022/06/04 21:53:22;;;;;;;;;14.50;11.00;;;;;-146.59;100.00;59519.28;5060963;28;51307;-86
2022/06/04 21:56:06;;;;;;;;;21.00;14.00;;;;;-146.59;100.00;59519.28;5055253;28;51246;-88
2022/06/04 21:58:52;;;;;;;;;20.00;14.25;;;;;-146.59;100.00;59519.28;5044340;27;51186;-91
2022/06/04 22:01:56;;;;;;;;;22.75;18.50;;;;;-146.59;100.00;59519.28;5061738;27;51260;-89
2022/06/04 22:04:49;;;;;;;;;21.00;18.00;;;;;-146.59;100.00;59519.28;5067271;27;51160;-90
2022/06/04 22:07:54;;;;;;;;;16.75;14.50;;;;;-146.59;100.00;59519.28;5067411;27;51041;-89
2022/06/04 22:10:40;;;;;;;;;13.00;12.50;;;;;-146.59;100.00;59519.28;5084078;27;51221;-89
2022/06/04 22:13:26;;;;;;;;;15.50;10.25;;;;;-146.59;100.00;59519.28;5060588;27;51034;-90
2022/06/04 22:16:19;;;;;;;;;15.50;10.50;;;;;-146.59;100.00;59519.28;5070748;28;51102;-89
2022/06/04 22:19:06;;;;;;;;;14.00;11.00;;;;;-146.59;100.00;59519.28;5057640;27;51240;-87
2022/06/04 22:21:55;;;;;;;;;12.00;10.25;;;;;-146.59;100.00;59519.28;5058488;27;51231;-88
2022/06/04 22:24:41;;;;;;;;;15.25;10.75;;;;;-146.59;100.00;59519.28;5061698;28;51470;-90
2022/06/04 22:27:31;;;;;;;;;12.00;10.75;;;;;-146.59;100.00;59519.28;5064029;28;51246;-90
2022/06/04 22:30:21;;;;;;;;;16.75;13.25;;;;;-146.59;100.00;59519.28;5079536;28;50996;-89
2022/06/04 22:33:11;;;;;;;;;15.50;12.75;;;;;-146.59;100.00;59519.28;5063189;28;50694;-90
2022/06/04 22:35:59;;;;;;;;;18.25;12.50;;;;;-146.59;100.00;59519.28;5063274;28;51242;-89
2022/06/04 22:38:44;;;;;;;;;17.25;12.50;;;;;-146.59;100.00;59519.28;5061690;28;50941;-88
2022/06/04 22:41:28;;;;;;;;;18.50;11.50;;;;;-146.59;100.00;59519.28;5049334;28;51037;-90
2022/06/04 22:44:18;;;;;;;;;14.25;10.50;;;;;-146.59;100.00;59519.28;5048789;28;51393;-89
2022/06/04 22:47:19;;;;;;;;;8.50;7.75;;;;;-146.59;100.00;59519.28;5074733;28;50570;-90
2022/06/04 22:50:05;;;;;;;;;12.75;9.00;;;;;-146.59;100.00;59519.28;5044336;28;51254;-89
2022/06/04 22:52:50;;;;;;;;;13.75;10.75;;;;;-146.59;100.00;59519.28;5044959;28;51054;-89
2022/06/04 22:55:49;;;;;;;;;9.75;9.75;;;;;-146.59;100.00;59519.28;5050419;28;50577;-90
2022/06/04 22:58:36;;;;;;;;;13.50;9.00;;;;;-146.59;100.00;59519.28;5077907;28;51546;-90
2022/06/04 23:01:23;;;;;;;;;10.50;10.00;;;;;-146.59;100.00;59519.28;5064732;28;50952;-90
2022/06/04 23:04:16;;;;;;;;;13.50;11.25;;;;;-146.59;100.00;59519.28;5074917;28;51174;-90
2022/06/04 23:07:02;;;;;;;;;15.00;12.75;;;;;-146.59;100.00;59519.28;5061563;28;51253;-89